createdAt,value
2023-05-18T00:01:16.835Z,4.60
2023-05-18T00:03:43.628Z,4.50
2023-05-18T00:06:10.588Z,4.40
2023-05-18T00:08:38.294Z,4.40
2023-05-18T00:11:06.401Z,4.30
2023-05-18T00:13:34.138Z,4.30
2023-05-18T00:16:01.164Z,4.20
2023-05-18T00:18:28.253Z,4.20
2023-05-18T00:21:01.972Z,4.30
2023-05-18T00:23:33.154Z,4.20
2023-05-18T00:26:01.275Z,4.20
2023-05-18T00:28:28.640Z,4.20
2023-05-18T00:30:56.100Z,4.20
2023-05-18T00:33:23.281Z,4.10
2023-05-18T00:35:49.933Z,4.10
2023-05-18T00:38:16.653Z,4.00
2023-05-18T00:40:44.157Z,4.00
2023-05-18T00:43:11.016Z,4.00
2023-05-18T00:45:37.722Z,3.90
2023-05-18T00:48:04.839Z,4.00
2023-05-18T00:50:31.967Z,4.00
2023-05-18T00:52:58.958Z,4.10
2023-05-18T00:55:27.947Z,4.00
2023-05-18T00:57:56.459Z,3.90
2023-05-18T01:00:23.859Z,3.90
2023-05-18T01:02:50.972Z,3.90
2023-05-18T01:05:18.073Z,3.80
2023-05-18T01:07:44.847Z,3.80
2023-05-18T01:10:12.603Z,3.70
2023-05-18T01:12:54.906Z,3.70
2023-05-18T01:15:38.770Z,3.70
2023-05-18T01:18:15.243Z,3.60
2023-05-18T01:20:57.635Z,3.60
2023-05-18T01:23:42.449Z,3.50
2023-05-18T01:26:17.598Z,3.40
2023-05-18T01:28:46.520Z,3.40
2023-05-18T01:31:16.102Z,3.40
2023-05-18T01:33:43.810Z,3.40
2023-05-18T01:36:11.360Z,3.40
2023-05-18T01:38:39.023Z,3.40
2023-05-18T01:41:24.806Z,3.40
2023-05-18T01:44:17.439Z,3.40
2023-05-18T01:46:56.345Z,3.30
2023-05-18T01:49:41.674Z,3.20
2023-05-18T01:52:11.661Z,3.10
2023-05-18T01:54:43.087Z,3.10
2023-05-18T01:57:10.680Z,3.20
2023-05-18T01:59:38.523Z,3.20
2023-05-18T02:02:05.685Z,3.10
2023-05-18T02:04:32.404Z,3.10
2023-05-18T02:06:59.073Z,3.10
2023-05-18T02:09:25.940Z,3.00
2023-05-18T02:11:52.621Z,3.00
2023-05-18T02:14:21.339Z,2.90
2023-05-18T02:16:53.052Z,3.00
2023-05-18T02:19:21.014Z,2.90
2023-05-18T02:21:47.898Z,2.90
2023-05-18T02:24:14.543Z,2.80
2023-05-18T02:26:41.691Z,2.90
2023-05-18T02:29:11.650Z,2.80
2023-05-18T02:31:38.849Z,2.80
2023-05-18T02:34:05.860Z,2.90
2023-05-18T02:36:40.525Z,2.80
2023-05-18T02:39:07.621Z,2.80
2023-05-18T02:41:34.688Z,2.80
2023-05-18T02:44:02.979Z,2.70
2023-05-18T02:46:30.164Z,2.70
2023-05-18T02:48:57.267Z,2.70
2023-05-18T02:51:25.077Z,2.60
2023-05-18T02:53:52.050Z,2.60
2023-05-18T02:56:18.751Z,2.60
2023-05-18T02:58:45.479Z,2.60
2023-05-18T03:01:12.314Z,2.50
2023-05-18T03:03:39.642Z,2.50
2023-05-18T03:06:08.160Z,2.50
2023-05-18T03:08:37.168Z,2.50
2023-05-18T03:11:04.320Z,2.50
2023-05-18T03:13:30.978Z,2.50
2023-05-18T03:15:57.686Z,2.50
2023-05-18T03:18:25.643Z,2.40
2023-05-18T03:20:52.631Z,2.50
2023-05-18T03:23:20.052Z,2.40
2023-05-18T03:25:46.741Z,2.40
2023-05-18T03:28:13.374Z,2.40
2023-05-18T03:30:40.051Z,2.30
2023-05-18T03:33:06.758Z,2.30
2023-05-18T03:35:36.560Z,2.30
2023-05-18T03:38:03.278Z,2.30
2023-05-18T03:40:29.972Z,2.30
2023-05-18T03:42:56.626Z,2.30
2023-05-18T03:45:23.244Z,2.30
2023-05-18T03:47:50.129Z,2.30
2023-05-18T03:50:16.865Z,2.20
2023-05-18T03:52:45.017Z,2.20
2023-05-18T03:55:12.137Z,2.30
2023-05-18T03:57:39.123Z,2.20
2023-05-18T04:00:11.765Z,2.30
2023-05-18T04:02:39.213Z,2.30
2023-05-18T04:05:07.084Z,2.30
2023-05-18T04:07:33.732Z,2.30
2023-05-18T04:10:00.505Z,2.30
2023-05-18T04:12:27.130Z,2.40
2023-05-18T04:14:54.385Z,2.40
2023-05-18T04:17:23.929Z,2.40
2023-05-18T04:19:50.639Z,2.50
2023-05-18T04:22:17.551Z,2.40
2023-05-18T04:24:47.335Z,2.50
2023-05-18T04:27:14.533Z,2.60
2023-05-18T04:29:43.830Z,2.60
2023-05-18T04:32:10.938Z,2.60
2023-05-18T04:34:37.739Z,2.50
2023-05-18T04:37:07.763Z,2.70
2023-05-18T04:39:35.126Z,2.80
2023-05-18T04:42:04.513Z,2.80
2023-05-18T04:44:34.922Z,2.90
2023-05-18T04:47:01.623Z,3.00
2023-05-18T04:49:28.382Z,3.10
2023-05-18T04:51:56.377Z,3.20
2023-05-18T04:54:24.117Z,3.30
2023-05-18T04:56:51.752Z,3.30
2023-05-18T04:59:19.507Z,3.40
2023-05-18T05:01:46.532Z,3.50
2023-05-18T05:04:13.515Z,3.60
2023-05-18T05:06:40.182Z,3.70
2023-05-18T05:09:07.204Z,3.70
2023-05-18T05:11:34.609Z,3.80
2023-05-18T05:14:03.005Z,4.00
2023-05-18T05:16:29.898Z,4.00
2023-05-18T05:18:56.858Z,4.10
2023-05-18T05:21:23.587Z,4.20
2023-05-18T05:23:50.212Z,4.30
2023-05-18T05:26:17.538Z,4.60
2023-05-18T05:28:44.191Z,5.00
2023-05-18T05:31:11.063Z,5.50
2023-05-18T05:33:37.938Z,6.10
2023-05-18T05:36:08.560Z,6.80
2023-05-18T05:38:35.225Z,7.50
2023-05-18T05:41:02.020Z,7.70
2023-05-18T05:43:28.781Z,8.20
2023-05-18T05:45:55.503Z,8.60
2023-05-18T05:48:22.157Z,9.10
2023-05-18T05:50:48.901Z,9.90
2023-05-18T05:53:19.742Z,10.40
2023-05-18T05:55:46.659Z,10.50
2023-05-18T05:58:13.303Z,10.60
2023-05-18T06:00:39.981Z,11.10
2023-05-18T06:03:06.786Z,11.40
2023-05-18T06:05:33.756Z,11.20
2023-05-18T06:08:00.693Z,11.40
2023-05-18T06:10:28.398Z,11.50
2023-05-18T06:12:55.089Z,11.80
2023-05-18T06:15:21.719Z,11.90
2023-05-18T06:17:48.387Z,12.30
2023-05-18T06:20:15.084Z,13.00
2023-05-18T06:22:41.845Z,13.30
2023-05-18T06:25:10.582Z,13.30
2023-05-18T06:27:37.885Z,13.40
2023-05-18T06:30:05.529Z,13.70
2023-05-18T06:32:32.195Z,13.60
2023-05-18T06:34:59.098Z,13.70
2023-05-18T06:37:25.687Z,14.10
2023-05-18T06:39:53.473Z,14.40
2023-05-18T06:42:20.096Z,15.00
2023-05-18T06:44:46.781Z,15.10
2023-05-18T06:47:14.511Z,15.40
2023-05-18T06:49:41.268Z,15.40
2023-05-18T06:52:09.933Z,15.90
2023-05-18T06:54:37.178Z,16.00
2023-05-18T06:57:03.936Z,16.50
2023-05-18T06:59:30.724Z,16.60
2023-05-18T07:01:57.685Z,16.70
2023-05-18T07:04:24.381Z,17.30
2023-05-18T07:06:51.478Z,17.70
2023-05-18T07:09:18.101Z,17.30
2023-05-18T07:11:45.461Z,17.30
2023-05-18T07:14:12.161Z,17.20
2023-05-18T07:16:39.533Z,17.50
2023-05-18T07:19:06.279Z,17.60
2023-05-18T07:21:33.072Z,17.90
2023-05-18T07:23:59.800Z,17.80
2023-05-18T07:26:26.492Z,17.50
2023-05-18T07:28:53.208Z,17.60
2023-05-18T07:31:21.687Z,17.80
2023-05-18T07:33:48.572Z,18.00
2023-05-18T07:36:15.507Z,18.10
2023-05-18T07:38:42.354Z,18.10
2023-05-18T07:41:09.009Z,18.80
2023-05-18T07:43:36.094Z,19.50
2023-05-18T07:46:02.733Z,19.50
2023-05-18T07:48:29.354Z,19.60
2023-05-18T07:50:56.047Z,19.90
2023-05-18T07:53:22.721Z,19.70
2023-05-18T07:55:50.038Z,20.00
2023-05-18T07:58:16.765Z,20.10
2023-05-18T08:00:44.374Z,20.10
2023-05-18T08:03:11.181Z,20.80
2023-05-18T08:05:38.018Z,20.80
2023-05-18T08:08:06.777Z,20.40
2023-05-18T08:10:34.135Z,20.80
2023-05-18T08:13:00.747Z,21.30
2023-05-18T08:15:27.412Z,21.50
2023-05-18T08:17:55.051Z,21.60
2023-05-18T08:20:21.995Z,21.00
2023-05-18T08:22:48.795Z,21.60
2023-05-18T08:25:15.478Z,22.20
2023-05-18T08:27:42.154Z,22.10
2023-05-18T08:30:09.886Z,21.60
2023-05-18T08:32:37.328Z,22.20
2023-05-18T08:35:05.889Z,21.60
2023-05-18T08:37:32.531Z,21.00
2023-05-18T08:39:59.789Z,21.20
2023-05-18T08:42:49.346Z,21.60
2023-05-18T08:45:41.124Z,21.60
2023-05-18T08:48:10.281Z,21.20
2023-05-18T08:50:41.099Z,20.40
2023-05-18T08:53:10.807Z,20.80
2023-05-18T08:55:37.886Z,21.40
2023-05-18T08:58:07.604Z,21.50
2023-05-18T09:00:35.288Z,21.80
2023-05-18T09:03:04.885Z,21.10
2023-05-18T09:05:32.118Z,20.80
2023-05-18T09:08:00.475Z,20.90
2023-05-18T09:10:28.006Z,21.50
2023-05-18T09:12:56.079Z,21.30
2023-05-18T09:15:25.140Z,22.20
2023-05-18T09:17:52.106Z,21.80
2023-05-18T09:20:19.786Z,22.40
2023-05-18T09:22:49.492Z,22.70
2023-05-18T09:25:17.693Z,23.60
2023-05-18T09:27:44.424Z,24.60
2023-05-18T09:30:12.266Z,25.20
2023-05-18T09:32:39.132Z,25.40
2023-05-18T09:35:07.033Z,25.10
2023-05-18T09:37:33.980Z,24.70
2023-05-18T09:40:02.173Z,24.50
2023-05-18T09:42:43.489Z,24.60
2023-05-18T09:45:20.036Z,24.80
2023-05-18T09:47:46.980Z,25.10
2023-05-18T09:50:13.805Z,25.20
2023-05-18T09:52:45.046Z,25.10
2023-05-18T09:55:13.198Z,25.10
2023-05-18T09:57:42.772Z,24.00
2023-05-18T10:00:13.288Z,23.90
2023-05-18T10:02:49.124Z,24.20
2023-05-18T10:05:23.644Z,24.30
2023-05-18T10:07:54.941Z,24.90
2023-05-18T10:10:25.324Z,25.40
2023-05-18T10:12:53.344Z,25.50
2023-05-18T10:15:22.615Z,26.20
2023-05-18T10:17:51.500Z,26.70
2023-05-18T10:20:20.604Z,26.80
2023-05-18T10:22:49.168Z,27.40
2023-05-18T10:25:20.985Z,27.10
2023-05-18T10:27:55.517Z,27.90
2023-05-18T10:30:22.877Z,28.30
2023-05-18T10:32:51.337Z,28.00
2023-05-18T10:35:18.909Z,28.00
2023-05-18T10:37:48.012Z,28.40
2023-05-18T10:40:16.728Z,28.00
2023-05-18T10:42:44.091Z,26.80
2023-05-18T10:45:11.116Z,27.00
2023-05-18T10:47:42.390Z,27.10
2023-05-18T10:50:09.731Z,27.20
2023-05-18T10:52:41.413Z,28.20
2023-05-18T10:55:08.956Z,28.30
2023-05-18T10:57:39.656Z,26.90
2023-05-18T11:00:09.222Z,26.40
2023-05-18T11:02:40.123Z,26.20
2023-05-18T11:05:07.663Z,25.90
2023-05-18T11:07:34.717Z,25.90
2023-05-18T11:10:03.302Z,25.80
2023-05-18T11:12:32.969Z,26.50
2023-05-18T11:15:00.939Z,26.90
2023-05-18T11:17:30.734Z,27.60
2023-05-18T11:20:07.725Z,28.00
2023-05-18T11:22:47.764Z,27.30
2023-05-18T11:25:42.919Z,26.70
2023-05-18T11:28:14.974Z,26.60
2023-05-18T11:30:41.920Z,26.40
2023-05-18T11:33:13.720Z,27.50
2023-05-18T11:36:13.418Z,28.50
2023-05-18T11:38:55.043Z,27.60
2023-05-18T11:41:29.088Z,28.00
2023-05-18T11:44:06.704Z,28.50
2023-05-18T11:46:33.878Z,28.70
2023-05-18T11:49:06.988Z,28.80
2023-05-18T11:51:34.165Z,28.00
2023-05-18T11:54:01.511Z,28.30
2023-05-18T11:56:33.511Z,28.70
2023-05-18T11:59:13.690Z,28.10
2023-05-18T12:01:41.847Z,27.80
2023-05-18T12:04:10.095Z,27.40
2023-05-18T12:06:37.977Z,26.90
2023-05-18T12:09:05.740Z,26.70
2023-05-18T12:11:33.152Z,25.60
2023-05-18T12:14:00.992Z,25.10
2023-05-18T12:16:28.934Z,25.30
2023-05-18T12:18:57.205Z,25.00
2023-05-18T12:21:27.243Z,24.60
2023-05-18T12:24:00.965Z,24.50
2023-05-18T12:26:29.030Z,24.50
2023-05-18T12:28:56.341Z,24.70
2023-05-18T12:31:23.463Z,24.40
2023-05-18T12:33:51.688Z,24.30
2023-05-18T12:36:18.437Z,23.80
2023-05-18T12:38:54.349Z,23.40
2023-05-18T12:41:25.182Z,23.40
2023-05-18T12:43:54.596Z,23.40
2023-05-18T12:46:25.319Z,23.70
2023-05-18T12:49:01.363Z,24.00
2023-05-18T12:51:36.032Z,23.60
2023-05-18T12:54:03.839Z,23.20
2023-05-18T12:56:53.234Z,23.50
2023-05-18T12:59:20.257Z,24.10
2023-05-18T13:01:47.311Z,24.10
2023-05-18T13:04:14.254Z,23.80
2023-05-18T13:06:42.160Z,23.40
2023-05-18T13:09:12.422Z,22.70
2023-05-18T13:11:40.531Z,22.40
2023-05-18T13:14:08.899Z,22.50
2023-05-18T13:16:38.930Z,23.00
2023-05-18T13:19:07.499Z,23.30
2023-05-18T13:21:35.585Z,23.50
2023-05-18T13:24:05.936Z,23.20
2023-05-18T13:26:32.894Z,22.90
2023-05-18T13:29:00.261Z,22.20
2023-05-18T13:31:29.340Z,21.80
2023-05-18T13:33:56.266Z,21.80
2023-05-18T13:36:23.496Z,21.70
2023-05-18T13:38:50.258Z,21.60
2023-05-18T13:41:16.973Z,21.10
2023-05-18T13:43:43.644Z,21.20
2023-05-18T13:46:10.520Z,21.30
2023-05-18T13:48:37.192Z,21.30
2023-05-18T13:51:04.118Z,21.10
2023-05-18T13:53:31.172Z,20.90
2023-05-18T13:55:57.792Z,20.60
2023-05-18T13:58:24.448Z,20.60
2023-05-18T14:00:53.712Z,20.90
2023-05-18T14:03:20.571Z,20.70
2023-05-18T14:05:47.355Z,20.50
2023-05-18T14:08:13.970Z,20.60
2023-05-18T14:10:40.819Z,20.70
2023-05-18T14:13:08.462Z,20.40
2023-05-18T14:15:35.214Z,20.30
2023-05-18T14:18:01.898Z,20.40
2023-05-18T14:20:29.758Z,20.20
2023-05-18T14:22:56.848Z,20.30
2023-05-18T14:25:24.566Z,20.20
2023-05-18T14:27:51.280Z,20.10
2023-05-18T14:30:18.155Z,20.10
2023-05-18T14:32:44.841Z,20.00
2023-05-18T14:35:11.660Z,19.90
2023-05-18T14:37:38.367Z,19.90
2023-05-18T14:40:05.886Z,19.90
2023-05-18T14:42:32.705Z,20.00
2023-05-18T14:44:59.370Z,20.00
2023-05-18T14:47:26.173Z,20.20
2023-05-18T14:49:52.926Z,20.30
2023-05-18T14:52:19.701Z,19.90
2023-05-18T14:54:47.866Z,19.70
2023-05-18T14:57:14.544Z,19.70
2023-05-18T14:59:41.347Z,19.60
2023-05-18T15:02:08.359Z,19.60
2023-05-18T15:04:36.015Z,19.50
2023-05-18T15:07:02.949Z,19.50
2023-05-18T15:09:29.713Z,19.50
2023-05-18T15:11:57.462Z,19.70
2023-05-18T15:14:24.136Z,19.90
2023-05-18T15:16:50.749Z,19.90
2023-05-18T15:19:17.608Z,19.80
2023-05-18T15:21:44.819Z,19.50
2023-05-18T15:24:11.517Z,19.50
2023-05-18T15:26:38.377Z,19.60
2023-05-18T15:29:05.190Z,19.50
2023-05-18T15:31:33.173Z,19.40
2023-05-18T15:33:59.898Z,19.50
2023-05-18T15:36:26.647Z,19.50
2023-05-18T15:38:53.385Z,19.50
2023-05-18T15:41:20.089Z,19.50
2023-05-18T15:43:46.871Z,19.40
2023-05-18T15:46:13.649Z,19.30
2023-05-18T15:48:40.425Z,19.10
2023-05-18T15:51:07.581Z,18.80
2023-05-18T15:53:34.259Z,18.70
2023-05-18T15:56:01.038Z,18.90
2023-05-18T15:58:28.224Z,19.00
2023-05-18T16:00:55.116Z,19.10
2023-05-18T16:03:22.036Z,18.90
2023-05-18T16:05:48.898Z,18.60
2023-05-18T16:08:15.604Z,18.50
2023-05-18T16:10:43.310Z,18.20
2023-05-18T16:13:09.950Z,18.20
2023-05-18T16:15:37.001Z,18.30
2023-05-18T16:18:04.048Z,18.40
2023-05-18T16:20:31.057Z,18.60
2023-05-18T16:22:58.325Z,18.70
2023-05-18T16:25:26.200Z,18.60
2023-05-18T16:27:52.870Z,18.60
2023-05-18T16:30:19.570Z,18.70
2023-05-18T16:32:46.321Z,18.60
2023-05-18T16:35:13.126Z,18.50
2023-05-18T16:37:39.784Z,18.50
2023-05-18T16:40:07.197Z,18.50
2023-05-18T16:42:34.181Z,18.40
2023-05-18T16:45:00.948Z,18.40
2023-05-18T16:47:28.718Z,18.40
2023-05-18T16:49:55.550Z,18.30
2023-05-18T16:52:22.298Z,18.30
2023-05-18T16:54:48.948Z,18.20
2023-05-18T16:57:15.595Z,18.10
2023-05-18T16:59:42.710Z,18.10
2023-05-18T17:02:17.017Z,18.10
2023-05-18T17:04:49.806Z,18.10
2023-05-18T17:07:16.961Z,18.10
2023-05-18T17:09:44.397Z,18.10
2023-05-18T17:12:12.087Z,18.10
2023-05-18T17:14:39.064Z,18.10
2023-05-18T17:17:06.920Z,18.10
2023-05-18T17:19:34.998Z,18.00
2023-05-18T17:22:02.768Z,18.00
2023-05-18T17:24:29.433Z,18.00
2023-05-18T17:26:57.325Z,17.90
2023-05-18T17:29:24.050Z,17.90
2023-05-18T17:31:50.985Z,17.80
2023-05-18T17:34:17.677Z,17.80
2023-05-18T17:36:45.730Z,17.80
2023-05-18T17:39:12.947Z,17.70
2023-05-18T17:41:40.724Z,17.70
2023-05-18T17:44:07.481Z,17.60
2023-05-18T17:46:34.255Z,17.60
2023-05-18T17:49:02.261Z,17.60
2023-05-18T17:51:28.874Z,17.50
2023-05-18T17:53:56.467Z,17.50
2023-05-18T17:56:24.863Z,17.40
2023-05-18T17:58:53.113Z,17.40
2023-05-18T18:01:20.426Z,17.30
2023-05-18T18:03:48.463Z,17.30
2023-05-18T18:06:15.315Z,17.20
2023-05-18T18:08:42.859Z,17.10
2023-05-18T18:11:09.679Z,17.00
2023-05-18T18:13:36.353Z,16.90
2023-05-18T18:16:04.350Z,16.80
2023-05-18T18:18:31.785Z,16.70
2023-05-18T18:20:58.486Z,16.60
2023-05-18T18:23:25.252Z,16.60
2023-05-18T18:25:52.999Z,16.50
2023-05-18T18:28:19.727Z,16.40
2023-05-18T18:30:47.095Z,16.30
2023-05-18T18:33:16.468Z,16.20
2023-05-18T18:35:43.487Z,16.20
2023-05-18T18:38:10.737Z,16.00
2023-05-18T18:40:37.352Z,15.90
2023-05-18T18:43:03.994Z,15.80
2023-05-18T18:45:31.969Z,15.70
2023-05-18T18:47:59.613Z,15.50
2023-05-18T18:50:27.322Z,15.50
2023-05-18T18:52:54.064Z,15.30
2023-05-18T18:55:22.046Z,15.20
2023-05-18T18:57:48.679Z,15.10
2023-05-18T19:00:16.917Z,15.00
2023-05-18T19:02:43.779Z,14.80
2023-05-18T19:05:11.840Z,14.60
2023-05-18T19:07:38.546Z,14.50
2023-05-18T19:10:06.249Z,14.30
2023-05-18T19:12:33.970Z,14.10
2023-05-18T19:15:00.942Z,13.90
2023-05-18T19:17:27.616Z,13.80
2023-05-18T19:19:54.302Z,13.60
2023-05-18T19:22:20.984Z,13.40
2023-05-18T19:24:47.587Z,13.20
2023-05-18T19:27:14.257Z,13.10
2023-05-18T19:29:40.976Z,12.90
2023-05-18T19:32:07.878Z,12.70
2023-05-18T19:34:34.700Z,12.60
2023-05-18T19:37:02.436Z,12.50
2023-05-18T19:39:29.050Z,12.40
2023-05-18T19:41:56.840Z,12.30
2023-05-18T19:44:23.511Z,12.20
2023-05-18T19:46:50.330Z,12.20
2023-05-18T19:49:17.008Z,12.10
2023-05-18T19:51:43.645Z,12.00
2023-05-18T19:54:10.410Z,12.00
2023-05-18T19:56:37.085Z,11.80
2023-05-18T19:59:03.815Z,11.80
2023-05-18T20:01:32.244Z,11.70
2023-05-18T20:03:59.953Z,11.50
2023-05-18T20:06:32.295Z,11.30
2023-05-18T20:08:59.067Z,11.30
2023-05-18T20:11:26.029Z,11.20
2023-05-18T20:13:52.673Z,11.20
2023-05-18T20:16:19.381Z,11.10
2023-05-18T20:18:46.443Z,11.00
2023-05-18T20:21:13.121Z,10.80
2023-05-18T20:23:40.035Z,10.70
2023-05-18T20:26:10.929Z,10.50
2023-05-18T20:28:37.550Z,10.40
2023-05-18T20:31:04.227Z,10.30
2023-05-18T20:33:34.113Z,10.30
2023-05-18T20:36:01.774Z,10.30
2023-05-18T20:38:28.562Z,10.20
2023-05-18T20:40:57.137Z,10.20
2023-05-18T20:43:23.842Z,10.20
2023-05-18T20:45:51.359Z,10.20
2023-05-18T20:48:24.658Z,10.10
2023-05-18T20:50:52.373Z,10.00
2023-05-18T20:53:19.614Z,9.90
2023-05-18T20:55:47.599Z,9.80
2023-05-18T20:58:14.987Z,9.70
2023-05-18T21:00:42.147Z,9.60
2023-05-18T21:03:08.982Z,9.50
2023-05-18T21:05:35.776Z,9.40
2023-05-18T21:08:03.414Z,9.40
2023-05-18T21:10:30.453Z,9.40
2023-05-18T21:12:57.619Z,9.30
2023-05-18T21:15:24.263Z,9.20
2023-05-18T21:17:50.942Z,9.00
2023-05-18T21:20:17.582Z,9.00
2023-05-18T21:22:44.463Z,8.90
2023-05-18T21:25:11.163Z,8.90
2023-05-18T21:27:38.147Z,8.70
2023-05-18T21:30:05.320Z,8.60
2023-05-18T21:32:32.037Z,8.60
2023-05-18T21:34:58.787Z,8.50
2023-05-18T21:37:25.672Z,8.40
2023-05-18T21:39:52.330Z,8.40
2023-05-18T21:42:19.067Z,8.30
2023-05-18T21:44:45.776Z,8.30
2023-05-18T21:47:12.457Z,8.30
2023-05-18T21:49:39.148Z,8.30
2023-05-18T21:52:05.951Z,8.20
2023-05-18T21:54:33.432Z,8.20
2023-05-18T21:57:00.266Z,8.10
2023-05-18T21:59:26.913Z,8.00
2023-05-18T22:01:53.653Z,7.90
2023-05-18T22:04:20.336Z,7.90
2023-05-18T22:06:46.994Z,7.80
2023-05-18T22:09:13.600Z,7.80
2023-05-18T22:11:40.258Z,7.70
2023-05-18T22:14:06.942Z,7.70
2023-05-18T22:16:33.714Z,7.70
2023-05-18T22:19:00.454Z,7.70
2023-05-18T22:21:27.242Z,7.70
2023-05-18T22:23:53.907Z,7.70
2023-05-18T22:26:20.545Z,7.60
2023-05-18T22:28:47.399Z,7.50
2023-05-18T22:31:14.096Z,7.50
2023-05-18T22:33:40.862Z,7.50
2023-05-18T22:36:07.727Z,7.50
2023-05-18T22:38:34.385Z,7.40
2023-05-18T22:41:00.989Z,7.30
2023-05-18T22:43:28.854Z,7.30
2023-05-18T22:45:55.635Z,7.30
2023-05-18T22:48:22.396Z,7.20
2023-05-18T22:50:49.071Z,7.30
2023-05-18T22:53:15.925Z,7.20
2023-05-18T22:55:42.664Z,7.10
2023-05-18T22:58:09.314Z,7.00
2023-05-18T23:00:36.429Z,6.90
2023-05-18T23:03:03.263Z,6.90
2023-05-18T23:05:30.009Z,6.90
2023-05-18T23:07:58.078Z,6.90
2023-05-18T23:10:26.348Z,6.80
2023-05-18T23:12:55.577Z,6.70
2023-05-18T23:15:23.069Z,6.60
2023-05-18T23:17:50.284Z,6.60
2023-05-18T23:20:17.010Z,6.60
2023-05-18T23:22:43.692Z,6.60
2023-05-18T23:25:11.041Z,6.60
2023-05-18T23:27:37.708Z,6.60
2023-05-18T23:30:04.687Z,6.60
2023-05-18T23:32:31.811Z,6.60
2023-05-18T23:34:59.521Z,6.50
2023-05-18T23:37:26.459Z,6.40
2023-05-18T23:39:54.127Z,6.40
2023-05-18T23:42:21.322Z,6.40
2023-05-18T23:44:48.574Z,6.30
2023-05-18T23:47:16.516Z,6.30
2023-05-18T23:49:44.564Z,6.30
2023-05-18T23:52:11.765Z,6.20
2023-05-18T23:54:38.720Z,6.20
2023-05-18T23:57:05.798Z,6.20
2023-05-18T23:59:32.672Z,6.20
